createdAt,value
2017-11-29T00:01:51.378Z,8.57
2017-11-29T00:04:19.806Z,9.17
2017-11-29T00:06:48.133Z,8.40
2017-11-29T00:09:16.477Z,8.93
2017-11-29T00:11:44.816Z,9.23
2017-11-29T00:14:13.184Z,8.57
2017-11-29T00:16:41.554Z,8.60
2017-11-29T00:19:09.912Z,8.30
2017-11-29T00:21:38.241Z,7.70
2017-11-29T00:24:06.577Z,8.83
2017-11-29T00:26:34.921Z,8.33
2017-11-29T00:29:03.257Z,7.93
2017-11-29T00:31:32.381Z,8.57
2017-11-29T00:34:00.814Z,8.40
2017-11-29T00:36:29.176Z,8.03
2017-11-29T00:38:57.504Z,8.13
2017-11-29T00:41:25.864Z,7.80
2017-11-29T00:43:54.980Z,7.93
2017-11-29T00:46:23.355Z,8.70
2017-11-29T00:48:51.694Z,8.37
2017-11-29T00:51:20.100Z,8.57
2017-11-29T00:53:49.650Z,8.13
2017-11-29T00:56:18.015Z,8.63
2017-11-29T00:58:46.344Z,8.47
2017-11-29T01:01:14.714Z,8.87
2017-11-29T01:03:43.162Z,8.83
2017-11-29T01:06:11.503Z,9.57
2017-11-29T01:08:40.668Z,8.60
2017-11-29T01:11:09.816Z,8.90
2017-11-29T01:13:38.153Z,9.67
2017-11-29T01:16:06.601Z,9.33
2017-11-29T01:18:34.922Z,9.27
2017-11-29T01:21:03.265Z,8.50
2017-11-29T01:23:31.606Z,9.33
2017-11-29T01:25:59.989Z,9.07
2017-11-29T01:28:28.346Z,9.27
2017-11-29T01:30:56.755Z,9.10
2017-11-29T01:33:25.276Z,8.60
2017-11-29T01:35:53.603Z,9.33
2017-11-29T01:38:21.973Z,9.13
2017-11-29T01:40:51.070Z,9.67
2017-11-29T01:43:20.192Z,8.77
2017-11-29T01:45:48.525Z,8.97
2017-11-29T01:48:16.889Z,9.07
2017-11-29T01:50:45.241Z,10.00
2017-11-29T01:53:13.639Z,9.53
2017-11-29T01:55:41.976Z,9.13
2017-11-29T01:58:10.347Z,9.03
2017-11-29T02:00:48.551Z,8.60
2017-11-29T02:03:17.637Z,8.10
2017-11-29T02:05:46.984Z,8.97
2017-11-29T02:08:15.328Z,8.07
2017-11-29T02:10:44.470Z,8.97
2017-11-29T02:13:12.812Z,9.13
2017-11-29T02:15:41.139Z,8.97
2017-11-29T02:18:09.475Z,8.53
2017-11-29T02:20:37.804Z,8.43
2017-11-29T02:23:06.342Z,9.37
2017-11-29T02:25:34.678Z,9.13
2017-11-29T02:28:03.018Z,8.80
2017-11-29T02:30:31.371Z,9.77
2017-11-29T02:32:59.735Z,9.20
2017-11-29T02:35:28.846Z,9.13
2017-11-29T02:37:57.223Z,10.10
2017-11-29T02:40:37.305Z,9.57
2017-11-29T02:43:05.648Z,10.23
2017-11-29T02:45:34.061Z,9.50
2017-11-29T02:48:02.407Z,9.50
2017-11-29T02:50:31.527Z,9.80
2017-11-29T02:52:59.864Z,10.03
2017-11-29T02:55:28.958Z,9.23
2017-11-29T02:57:58.106Z,9.33
2017-11-29T03:00:26.434Z,10.07
2017-11-29T03:02:55.525Z,10.47
2017-11-29T03:05:24.637Z,10.20
2017-11-29T03:07:53.038Z,9.73
2017-11-29T03:10:21.374Z,9.97
2017-11-29T03:12:49.700Z,9.53
2017-11-29T03:15:18.050Z,9.10
2017-11-29T03:17:47.154Z,9.83
2017-11-29T03:20:15.494Z,10.77
2017-11-29T03:22:43.976Z,9.47
2017-11-29T03:25:12.273Z,9.20
2017-11-29T03:27:41.378Z,9.67
2017-11-29T03:30:09.709Z,10.23
2017-11-29T03:32:38.049Z,10.20
2017-11-29T03:35:06.388Z,11.07
2017-11-29T03:37:34.821Z,10.07
2017-11-29T03:40:03.171Z,10.40
2017-11-29T03:42:32.263Z,10.27
2017-11-29T03:45:01.381Z,10.87
2017-11-29T03:47:29.714Z,10.47
2017-11-29T03:49:58.347Z,10.83
2017-11-29T03:52:26.744Z,10.67
2017-11-29T03:54:55.086Z,11.93
2017-11-29T03:57:24.217Z,11.17
2017-11-29T03:59:52.641Z,10.67
2017-11-29T04:02:20.996Z,12.03
2017-11-29T04:04:49.342Z,11.70
2017-11-29T04:07:17.673Z,11.77
2017-11-29T04:09:46.009Z,11.53
2017-11-29T04:12:14.790Z,11.40
2017-11-29T04:14:43.117Z,11.23
2017-11-29T04:17:11.440Z,11.67
2017-11-29T04:19:39.816Z,12.20
2017-11-29T04:22:08.201Z,11.23
2017-11-29T04:24:36.540Z,10.57
2017-11-29T04:27:06.333Z,11.80
2017-11-29T04:29:34.690Z,11.03
2017-11-29T04:32:03.025Z,11.00
2017-11-29T04:34:32.124Z,11.07
2017-11-29T04:37:01.265Z,11.60
2017-11-29T04:39:29.597Z,10.77
2017-11-29T04:41:58.737Z,10.73
2017-11-29T04:44:27.061Z,10.60
2017-11-29T04:46:56.194Z,10.10
2017-11-29T04:49:24.880Z,10.27
2017-11-29T04:51:53.208Z,11.10
2017-11-29T04:54:21.532Z,11.17
2017-11-29T04:56:49.929Z,11.00
2017-11-29T04:59:18.260Z,11.63
2017-11-29T05:01:46.709Z,10.43
2017-11-29T05:04:15.046Z,10.67
2017-11-29T05:06:43.452Z,11.07
2017-11-29T05:09:11.853Z,10.87
2017-11-29T05:11:40.220Z,10.67
2017-11-29T05:14:08.598Z,10.73
2017-11-29T05:16:36.943Z,11.13
2017-11-29T05:19:05.268Z,12.03
2017-11-29T05:21:33.601Z,11.73
2017-11-29T05:24:01.933Z,12.20
2017-11-29T05:26:30.282Z,11.87
2017-11-29T05:28:58.620Z,13.07
2017-11-29T05:31:27.732Z,11.50
2017-11-29T05:33:56.065Z,12.20
2017-11-29T05:36:24.392Z,11.70
2017-11-29T05:38:52.734Z,11.33
2017-11-29T05:41:21.060Z,12.13
2017-11-29T05:43:49.422Z,11.27
2017-11-29T05:46:17.793Z,12.17
2017-11-29T05:48:46.895Z,10.53
2017-11-29T05:51:15.238Z,10.23
2017-11-29T05:53:43.569Z,10.30
2017-11-29T05:56:12.097Z,9.87
2017-11-29T05:58:40.424Z,10.10
2017-11-29T06:01:08.757Z,9.73
2017-11-29T06:03:37.634Z,10.53
2017-11-29T06:06:06.025Z,9.83
2017-11-29T06:08:35.181Z,9.43
2017-11-29T06:11:03.500Z,10.30
2017-11-29T06:13:31.849Z,9.60
2017-11-29T06:16:01.130Z,9.63
2017-11-29T06:18:29.460Z,10.27
2017-11-29T06:20:57.857Z,10.70
2017-11-29T06:23:26.223Z,10.07
2017-11-29T06:25:54.639Z,10.57
2017-11-29T06:28:23.021Z,11.43
2017-11-29T06:30:51.361Z,10.23
2017-11-29T06:33:19.697Z,8.97
2017-11-29T06:35:48.176Z,10.07
2017-11-29T06:38:16.982Z,11.37
2017-11-29T06:40:45.408Z,11.43
2017-11-29T06:43:14.509Z,10.57
2017-11-29T06:45:43.635Z,9.57
2017-11-29T06:48:12.037Z,10.63
2017-11-29T06:50:40.435Z,10.90
2017-11-29T06:53:08.759Z,11.23
2017-11-29T06:55:37.157Z,10.77
2017-11-29T06:58:05.526Z,11.63
2017-11-29T07:00:33.893Z,10.17
2017-11-29T07:03:02.256Z,10.30
2017-11-29T07:05:30.656Z,10.23
2017-11-29T07:07:58.977Z,10.43
2017-11-29T07:10:27.425Z,10.33
2017-11-29T07:12:55.748Z,10.83
2017-11-29T07:15:24.117Z,10.03
2017-11-29T07:17:52.444Z,10.57
2017-11-29T07:20:20.797Z,10.73
2017-11-29T07:22:49.226Z,11.23
2017-11-29T07:25:17.545Z,11.33
2017-11-29T07:27:45.885Z,10.90
2017-11-29T07:30:14.212Z,10.17
2017-11-29T07:32:43.402Z,10.00
2017-11-29T07:35:11.728Z,10.13
2017-11-29T07:37:40.070Z,10.87
2017-11-29T07:40:09.182Z,10.83
2017-11-29T07:42:37.593Z,10.60
2017-11-29T07:45:06.311Z,11.13
2017-11-29T07:47:34.661Z,10.70
2017-11-29T07:50:03.014Z,10.80
2017-11-29T07:52:31.362Z,10.00
2017-11-29T07:55:00.458Z,10.80
2017-11-29T07:57:29.707Z,10.93
2017-11-29T07:59:58.075Z,10.87
2017-11-29T08:02:26.398Z,10.23
2017-11-29T08:04:54.760Z,10.57
2017-11-29T08:07:23.098Z,10.23
2017-11-29T08:09:51.470Z,10.07
2017-11-29T08:12:19.811Z,10.03
2017-11-29T08:14:48.240Z,9.73
2017-11-29T08:17:16.667Z,10.23
2017-11-29T08:19:45.006Z,10.00
2017-11-29T08:22:13.389Z,9.20
2017-11-29T08:24:41.717Z,8.53
2017-11-29T08:27:10.044Z,8.23
2017-11-29T08:29:38.381Z,8.17
2017-11-29T08:32:06.701Z,8.33
2017-11-29T08:34:35.077Z,8.13
2017-11-29T08:37:03.400Z,8.03
2017-11-29T08:39:31.809Z,8.67
2017-11-29T08:42:00.905Z,8.93
2017-11-29T08:44:29.420Z,7.80
2017-11-29T08:46:57.754Z,8.00
2017-11-29T08:49:26.855Z,7.97
2017-11-29T08:51:55.970Z,8.37
2017-11-29T08:54:24.364Z,8.27
2017-11-29T08:56:52.685Z,8.40
2017-11-29T08:59:21.080Z,8.40
2017-11-29T09:01:50.226Z,9.60
2017-11-29T09:04:18.575Z,8.73
2017-11-29T09:06:47.710Z,8.87
2017-11-29T09:09:16.050Z,8.60
2017-11-29T09:11:45.146Z,8.70
2017-11-29T09:14:14.272Z,9.20
2017-11-29T09:16:42.646Z,9.30
2017-11-29T09:19:10.972Z,9.17
2017-11-29T09:21:39.382Z,9.23
2017-11-29T09:24:08.485Z,9.10
2017-11-29T09:26:36.891Z,8.97
2017-11-29T09:29:05.237Z,8.93
2017-11-29T09:31:34.325Z,8.80
2017-11-29T09:34:03.451Z,7.90
2017-11-29T09:36:31.782Z,9.30
2017-11-29T09:39:00.115Z,9.03
2017-11-29T09:41:28.452Z,8.20
2017-11-29T09:43:57.540Z,8.90
2017-11-29T09:46:26.680Z,9.30
2017-11-29T09:48:55.006Z,9.37
2017-11-29T09:51:23.428Z,9.30
2017-11-29T09:53:52.022Z,8.47
2017-11-29T09:56:20.346Z,8.30
2017-11-29T09:58:48.966Z,8.27
2017-11-29T10:01:18.051Z,8.47
2017-11-29T10:03:47.229Z,8.20
2017-11-29T10:06:16.422Z,7.93
2017-11-29T10:08:44.767Z,7.60
2017-11-29T10:11:13.123Z,7.47
2017-11-29T10:13:41.509Z,6.83
2017-11-29T10:16:09.835Z,8.17
2017-11-29T10:18:38.179Z,7.80
2017-11-29T10:21:06.541Z,7.33
2017-11-29T10:23:34.929Z,9.40
2017-11-29T10:26:03.265Z,7.83
2017-11-29T10:28:31.639Z,7.60
2017-11-29T10:31:00.057Z,7.83
2017-11-29T10:33:28.437Z,7.53
2017-11-29T10:35:56.768Z,7.60
2017-11-29T10:38:25.416Z,8.43
2017-11-29T10:40:53.757Z,7.97
2017-11-29T10:43:22.858Z,8.40
2017-11-29T10:45:51.956Z,8.80
2017-11-29T10:48:20.295Z,9.30
2017-11-29T10:50:48.647Z,9.37
2017-11-29T10:53:17.090Z,9.27
2017-11-29T10:55:46.189Z,9.43
2017-11-29T10:58:14.520Z,10.03
2017-11-29T11:00:42.975Z,9.93
2017-11-29T11:03:11.352Z,9.23
2017-11-29T11:05:40.034Z,9.10
2017-11-29T11:08:08.362Z,8.47
2017-11-29T11:10:37.191Z,8.97
2017-11-29T11:13:05.626Z,9.87
2017-11-29T11:15:33.952Z,9.90
2017-11-29T11:18:02.311Z,10.10
2017-11-29T11:20:31.412Z,9.63
2017-11-29T11:23:00.637Z,8.93
2017-11-29T11:25:28.965Z,9.40
2017-11-29T11:27:57.307Z,8.30
2017-11-29T11:30:25.673Z,7.63
2017-11-29T11:32:54.006Z,7.37
2017-11-29T11:35:22.366Z,7.67
2017-11-29T11:37:50.697Z,7.77
2017-11-29T11:40:19.021Z,6.90
2017-11-29T11:42:47.379Z,6.30
2017-11-29T11:45:15.701Z,6.03
2017-11-29T11:47:44.336Z,6.10
2017-11-29T11:50:12.670Z,6.13
2017-11-29T11:52:42.372Z,6.00
2017-11-29T11:55:10.781Z,6.10
2017-11-29T11:57:39.177Z,6.20
2017-11-29T12:00:07.555Z,6.93
2017-11-29T12:02:35.910Z,5.80
2017-11-29T12:05:05.843Z,6.23
2017-11-29T12:07:34.207Z,6.30
2017-11-29T12:10:03.423Z,6.43
2017-11-29T12:12:32.486Z,7.03
2017-11-29T12:15:00.912Z,6.87
2017-11-29T12:17:29.246Z,6.87
2017-11-29T12:19:58.391Z,7.67
2017-11-29T12:22:26.705Z,6.93
2017-11-29T12:24:55.049Z,6.90
2017-11-29T12:27:23.397Z,6.33
2017-11-29T12:29:51.749Z,6.80
2017-11-29T12:32:20.083Z,6.90
2017-11-29T12:34:48.450Z,6.23
2017-11-29T12:37:16.772Z,6.47
2017-11-29T12:39:45.105Z,6.20
2017-11-29T12:42:13.482Z,6.40
2017-11-29T12:44:41.870Z,6.20
2017-11-29T12:47:10.198Z,6.47
2017-11-29T12:49:50.421Z,6.10
2017-11-29T12:52:18.762Z,6.30
2017-11-29T12:54:47.914Z,7.20
2017-11-29T12:57:16.241Z,6.53
2017-11-29T12:59:44.578Z,6.43
2017-11-29T13:02:13.015Z,6.97
2017-11-29T13:04:41.352Z,5.97
2017-11-29T13:07:09.777Z,7.03
2017-11-29T13:09:38.297Z,6.07
2017-11-29T13:12:06.749Z,6.40
2017-11-29T13:14:35.076Z,6.53
2017-11-29T13:17:04.171Z,5.73
2017-11-29T13:19:33.348Z,6.73
2017-11-29T13:22:01.673Z,6.40
2017-11-29T13:24:30.016Z,6.70
2017-11-29T13:26:58.432Z,6.30
2017-11-29T13:29:26.808Z,7.00
2017-11-29T13:31:55.148Z,6.47
2017-11-29T13:34:23.599Z,6.97
2017-11-29T13:36:52.283Z,6.40
2017-11-29T13:39:20.605Z,7.20
2017-11-29T13:41:48.925Z,8.70
2017-11-29T13:44:17.255Z,7.40
2017-11-29T13:46:45.606Z,6.20
2017-11-29T13:49:13.964Z,6.67
2017-11-29T13:51:42.305Z,6.40
2017-11-29T13:54:10.666Z,6.67
2017-11-29T13:56:39.011Z,6.90
2017-11-29T13:59:07.398Z,6.07
2017-11-29T14:01:35.750Z,5.50
2017-11-29T14:04:04.068Z,5.93
2017-11-29T14:06:32.410Z,6.03
2017-11-29T14:09:00.784Z,7.37
2017-11-29T14:11:29.266Z,6.43
2017-11-29T14:13:57.707Z,7.10
2017-11-29T14:16:26.067Z,6.83
2017-11-29T14:18:54.381Z,6.90
2017-11-29T14:21:23.485Z,7.37
2017-11-29T14:23:51.826Z,6.57
2017-11-29T14:26:20.183Z,6.57
2017-11-29T14:28:48.508Z,6.60
2017-11-29T14:31:17.629Z,6.13
2017-11-29T14:33:46.030Z,7.60
2017-11-29T14:36:14.401Z,6.67
2017-11-29T14:38:42.780Z,6.77
2017-11-29T14:41:11.237Z,7.53
2017-11-29T14:43:40.418Z,8.60
2017-11-29T14:46:08.720Z,7.60
2017-11-29T14:48:38.002Z,8.30
2017-11-29T14:51:07.135Z,9.17
2017-11-29T14:53:35.444Z,8.40
2017-11-29T14:56:03.824Z,8.50
2017-11-29T14:58:32.149Z,9.10
2017-11-29T15:01:00.496Z,9.03
2017-11-29T15:03:28.860Z,8.47
2017-11-29T15:05:57.237Z,9.37
2017-11-29T15:08:25.602Z,9.07
2017-11-29T15:10:54.002Z,8.27
2017-11-29T15:13:22.344Z,8.47
2017-11-29T15:15:50.672Z,7.97
2017-11-29T15:18:18.998Z,8.17
2017-11-29T15:20:47.356Z,8.17
2017-11-29T15:23:15.686Z,8.33
2017-11-29T15:25:44.017Z,7.57
2017-11-29T15:28:12.355Z,8.00
2017-11-29T15:30:40.683Z,7.57
2017-11-29T15:33:09.025Z,8.97
2017-11-29T15:35:38.204Z,11.47
2017-11-29T15:38:06.567Z,11.03
2017-11-29T15:40:34.906Z,10.93
2017-11-29T15:43:03.306Z,11.87
2017-11-29T15:45:31.653Z,10.50
2017-11-29T15:48:00.736Z,9.40
2017-11-29T15:50:29.137Z,9.43
2017-11-29T15:52:57.473Z,12.67
2017-11-29T15:55:25.807Z,12.83
2017-11-29T15:57:54.165Z,10.30
2017-11-29T16:00:23.251Z,9.47
2017-11-29T16:02:52.378Z,10.40
2017-11-29T16:05:20.715Z,9.27
2017-11-29T16:07:49.040Z,10.17
2017-11-29T16:10:17.385Z,8.90
2017-11-29T16:12:46.492Z,10.47
2017-11-29T16:15:14.888Z,10.40
2017-11-29T16:17:43.235Z,10.20
2017-11-29T16:20:12.333Z,9.33
2017-11-29T16:22:41.442Z,10.70
2017-11-29T16:25:09.798Z,9.30
2017-11-29T16:27:38.152Z,8.97
2017-11-29T16:30:06.511Z,8.57
2017-11-29T16:32:34.857Z,11.43
2017-11-29T16:35:03.262Z,10.47
2017-11-29T16:37:31.602Z,11.70
2017-11-29T16:40:00.767Z,11.30
2017-11-29T16:42:29.143Z,12.00
2017-11-29T16:44:57.501Z,12.10
2017-11-29T16:47:25.831Z,11.37
2017-11-29T16:49:54.225Z,11.67
2017-11-29T16:52:23.344Z,11.70
2017-11-29T16:54:51.693Z,11.53
2017-11-29T16:57:20.041Z,11.27
2017-11-29T16:59:48.392Z,11.57
2017-11-29T17:02:16.759Z,13.23
2017-11-29T17:04:45.133Z,13.90
2017-11-29T17:07:13.526Z,15.73
2017-11-29T17:09:41.933Z,14.30
2017-11-29T17:12:10.276Z,14.87
2017-11-29T17:14:38.618Z,14.97
2017-11-29T17:17:07.149Z,14.43
2017-11-29T17:19:35.510Z,14.27
2017-11-29T17:22:03.878Z,17.30
2017-11-29T17:24:32.220Z,15.73
2017-11-29T17:27:00.657Z,15.10
2017-11-29T17:29:28.997Z,14.47
2017-11-29T17:31:58.156Z,12.83
2017-11-29T17:34:26.578Z,15.63
2017-11-29T17:36:55.732Z,14.00
2017-11-29T17:39:24.180Z,14.10
2017-11-29T17:41:52.650Z,17.63
2017-11-29T17:44:21.736Z,14.33
2017-11-29T17:46:50.864Z,14.13
2017-11-29T17:49:19.267Z,13.93
2017-11-29T17:51:47.688Z,14.23
2017-11-29T17:54:16.788Z,15.10
2017-11-29T17:56:45.894Z,15.43
2017-11-29T17:59:15.104Z,14.80
2017-11-29T18:01:43.582Z,15.97
2017-11-29T18:04:12.709Z,14.00
2017-11-29T18:06:41.065Z,14.93
2017-11-29T18:09:10.574Z,15.70
2017-11-29T18:11:38.949Z,14.83
2017-11-29T18:14:07.280Z,15.33
2017-11-29T18:16:35.727Z,21.07
2017-11-29T18:19:04.186Z,21.70
2017-11-29T18:21:32.634Z,22.70
2017-11-29T18:24:01.757Z,25.47
2017-11-29T18:26:30.104Z,23.40
2017-11-29T18:28:58.464Z,23.37
2017-11-29T18:31:26.819Z,24.97
2017-11-29T18:33:55.244Z,22.50
2017-11-29T18:36:23.672Z,25.27
2017-11-29T18:38:52.034Z,27.07
2017-11-29T18:41:20.648Z,28.60
2017-11-29T18:43:48.968Z,27.20
2017-11-29T18:46:17.336Z,26.33
2017-11-29T18:48:45.693Z,27.40
2017-11-29T18:51:14.057Z,28.07
2017-11-29T18:53:42.426Z,27.17
2017-11-29T18:56:11.012Z,28.73
2017-11-29T18:58:39.399Z,29.47
2017-11-29T19:01:07.742Z,28.60
2017-11-29T19:03:36.857Z,29.53
2017-11-29T19:06:05.957Z,33.30
2017-11-29T19:08:34.295Z,35.57
2017-11-29T19:11:02.669Z,35.27
2017-11-29T19:13:31.032Z,30.07
2017-11-29T19:15:59.354Z,33.83
2017-11-29T19:18:27.761Z,34.27
2017-11-29T19:20:56.349Z,36.30
2017-11-29T19:23:24.696Z,33.83
2017-11-29T19:25:53.875Z,38.27
2017-11-29T19:28:22.261Z,35.23
2017-11-29T19:30:50.590Z,36.97
2017-11-29T19:33:18.924Z,35.97
2017-11-29T19:35:48.047Z,33.73
2017-11-29T19:38:16.388Z,33.90
2017-11-29T19:40:45.527Z,36.47
2017-11-29T19:43:13.913Z,35.50
2017-11-29T19:45:42.327Z,33.77
2017-11-29T19:48:10.784Z,33.07
2017-11-29T19:50:39.180Z,35.10
2017-11-29T19:53:07.527Z,35.27
2017-11-29T19:55:35.873Z,34.63
2017-11-29T19:58:04.283Z,34.70
2017-11-29T20:00:32.662Z,35.13
2017-11-29T20:03:01.212Z,35.80
2017-11-29T20:05:29.798Z,35.60
2017-11-29T20:07:58.312Z,37.40
2017-11-29T20:10:26.787Z,36.00
2017-11-29T20:12:55.175Z,36.93
2017-11-29T20:15:23.775Z,34.13
2017-11-29T20:17:52.089Z,33.40
2017-11-29T20:20:20.435Z,35.90
2017-11-29T20:22:48.786Z,34.43
2017-11-29T20:25:17.148Z,35.30
2017-11-29T20:27:46.264Z,37.40
2017-11-29T20:30:14.608Z,35.10
2017-11-29T20:32:43.029Z,35.23
2017-11-29T20:35:11.419Z,33.73
2017-11-29T20:37:39.798Z,35.83
2017-11-29T20:40:08.144Z,36.43
2017-11-29T20:42:37.259Z,32.97
2017-11-29T20:45:05.597Z,37.83
2017-11-29T20:47:33.962Z,37.03
2017-11-29T20:50:02.297Z,38.53
2017-11-29T20:52:42.770Z,35.50
2017-11-29T20:55:11.171Z,32.83
2017-11-29T20:57:39.508Z,36.57
2017-11-29T21:00:07.893Z,35.17
2017-11-29T21:02:36.268Z,34.90
2017-11-29T21:05:04.605Z,35.93
2017-11-29T21:07:33.090Z,37.30
2017-11-29T21:10:01.615Z,34.23
2017-11-29T21:12:29.946Z,33.97
2017-11-29T21:14:58.277Z,30.63
2017-11-29T21:17:26.617Z,29.20
2017-11-29T21:19:55.720Z,30.47
2017-11-29T21:22:24.828Z,31.77
2017-11-29T21:24:53.156Z,31.57
2017-11-29T21:27:21.530Z,33.83
2017-11-29T21:29:49.869Z,32.23
2017-11-29T21:32:18.203Z,32.87
2017-11-29T21:34:46.656Z,29.00
2017-11-29T21:37:15.193Z,27.63
2017-11-29T21:39:44.332Z,29.07
2017-11-29T21:42:12.678Z,30.20
2017-11-29T21:44:41.820Z,26.77
2017-11-29T21:47:10.253Z,27.47
2017-11-29T21:49:39.434Z,28.27
2017-11-29T21:52:07.778Z,25.60
2017-11-29T21:54:36.111Z,27.20
2017-11-29T21:57:05.245Z,26.93
2017-11-29T21:59:33.610Z,26.07
2017-11-29T22:02:01.962Z,26.53
2017-11-29T22:04:31.056Z,29.43
2017-11-29T22:07:00.173Z,26.37
2017-11-29T22:09:28.518Z,26.43
2017-11-29T22:11:57.620Z,26.13
2017-11-29T22:14:26.745Z,25.27
2017-11-29T22:16:55.159Z,25.57
2017-11-29T22:19:23.517Z,28.83
2017-11-29T22:21:51.848Z,27.00
2017-11-29T22:24:20.243Z,27.00
2017-11-29T22:26:49.347Z,27.30
2017-11-29T22:29:17.682Z,24.73
2017-11-29T22:31:46.026Z,28.47
2017-11-29T22:34:14.378Z,25.70
2017-11-29T22:36:42.792Z,28.27
2017-11-29T22:39:11.153Z,27.00
2017-11-29T22:41:39.572Z,28.40
2017-11-29T22:44:07.922Z,29.10
2017-11-29T22:46:36.290Z,26.83
2017-11-29T22:49:04.653Z,27.23
2017-11-29T22:51:33.000Z,25.90
2017-11-29T22:54:01.340Z,25.27
2017-11-29T22:56:29.708Z,26.50
2017-11-29T22:58:58.054Z,27.23
2017-11-29T23:01:27.170Z,27.33
2017-11-29T23:03:55.649Z,27.60
2017-11-29T23:06:24.039Z,26.50
2017-11-29T23:08:52.391Z,27.13
2017-11-29T23:11:21.518Z,28.07
2017-11-29T23:13:49.885Z,27.33
2017-11-29T23:16:18.249Z,27.20
2017-11-29T23:18:47.349Z,24.57
2017-11-29T23:21:16.461Z,27.03
2017-11-29T23:23:44.783Z,23.83
2017-11-29T23:26:13.196Z,24.53
2017-11-29T23:28:42.317Z,26.47
2017-11-29T23:31:10.684Z,25.40
2017-11-29T23:33:39.190Z,26.50
2017-11-29T23:36:07.684Z,26.77
2017-11-29T23:38:36.017Z,27.03
2017-11-29T23:41:05.126Z,27.73
2017-11-29T23:43:33.487Z,27.90
2017-11-29T23:46:01.842Z,27.10
2017-11-29T23:48:30.169Z,25.87
2017-11-29T23:50:58.521Z,25.60
2017-11-29T23:53:27.673Z,27.33
2017-11-29T23:55:56.012Z,26.30
2017-11-29T23:58:24.343Z,26.50
